createdAt,value
2019-04-23T00:01:33.167Z,41.40
2019-04-23T00:04:01.410Z,42.10
2019-04-23T00:06:42.956Z,41.40
2019-04-23T00:09:20.472Z,41.40
2019-04-23T00:11:32.540Z,41.40
2019-04-23T00:14:05.724Z,41.40
2019-04-23T00:16:38.182Z,41.40
2019-04-23T00:19:20.970Z,41.60
2019-04-23T00:22:08.784Z,41.60
2019-04-23T00:27:42.901Z,41.60
2019-04-23T00:30:14.949Z,41.70
2019-04-23T00:32:35.061Z,41.60
2019-04-23T00:35:00.720Z,41.60
2019-04-23T00:37:34.609Z,41.70
2019-04-23T00:39:59.201Z,41.70
2019-04-23T00:42:38.632Z,41.70
2019-04-23T00:45:03.313Z,41.70
2019-04-23T00:47:51.426Z,42.00
2019-04-23T00:52:55.104Z,41.90
2019-04-23T00:55:12.449Z,42.00
2019-04-23T01:02:49.173Z,42.20
2019-04-23T01:07:47.477Z,42.40
2019-04-23T01:15:18.923Z,42.10
2019-04-23T01:17:53.103Z,42.30
2019-04-23T01:20:24.142Z,42.20
2019-04-23T01:22:33.705Z,42.20
2019-04-23T01:25:32.281Z,42.20
2019-04-23T01:28:33.595Z,42.50
2019-04-23T01:31:03.710Z,42.80
2019-04-23T01:33:35.399Z,42.90
2019-04-23T01:36:21.453Z,43.00
2019-04-23T01:39:06.212Z,43.30
2019-04-23T01:41:20.462Z,43.30
2019-04-23T01:44:04.185Z,43.30
2019-04-23T01:46:22.052Z,43.20
2019-04-23T01:48:55.174Z,43.50
2019-04-23T01:51:27.879Z,43.30
2019-04-23T01:54:12.308Z,43.40
2019-04-23T01:56:25.915Z,43.40
2019-04-23T02:01:40.126Z,43.30
2019-04-23T02:04:03.288Z,43.30
2019-04-23T02:09:10.082Z,43.20
2019-04-23T02:11:37.673Z,43.50
2019-04-23T02:14:09.669Z,43.50
2019-04-23T02:19:30.532Z,43.60
2019-04-23T02:22:03.765Z,43.70
2019-04-23T02:25:03.586Z,43.70
2019-04-23T02:27:36.171Z,43.80
2019-04-23T02:30:15.634Z,43.80
2019-04-23T02:32:49.650Z,43.90
2019-04-23T02:35:17.052Z,44.00
2019-04-23T02:37:53.719Z,44.10
2019-04-23T02:43:01.659Z,44.10
2019-04-23T02:45:16.521Z,44.20
2019-04-23T02:48:01.844Z,44.30
2019-04-23T02:53:02.591Z,44.40
2019-04-23T02:55:26.744Z,44.40
2019-04-23T02:58:00.786Z,44.40
2019-04-23T03:00:39.916Z,44.40
2019-04-23T03:05:46.806Z,44.40
2019-04-23T03:08:12.707Z,44.40
2019-04-23T03:16:08.351Z,44.90
2019-04-23T03:29:16.687Z,45.40
2019-04-23T03:34:04.120Z,45.30
2019-04-23T03:37:11.101Z,45.60
2019-04-23T03:38:56.641Z,45.60
2019-04-23T03:44:18.654Z,45.50
2019-04-23T03:46:36.971Z,45.70
2019-04-23T03:49:33.281Z,45.80
2019-04-23T03:51:56.795Z,46.00
2019-04-23T03:57:06.113Z,46.00
2019-04-23T03:59:29.026Z,46.20
2019-04-23T04:04:35.025Z,46.30
2019-04-23T04:09:38.580Z,46.20
2019-04-23T04:12:12.462Z,46.30
2019-04-23T04:14:44.813Z,46.30
2019-04-23T04:17:13.769Z,46.50
2019-04-23T04:19:44.869Z,46.50
2019-04-23T04:22:18.391Z,46.70
2019-04-23T04:24:40.165Z,46.70
2019-04-23T04:32:47.341Z,46.70
2019-04-23T04:40:29.441Z,47.10
2019-04-23T04:48:09.489Z,47.30
2019-04-23T04:51:00.395Z,47.00
2019-04-23T04:53:24.892Z,47.80
2019-04-23T04:55:49.257Z,47.00
2019-04-23T04:58:30.803Z,47.00
2019-04-23T05:01:08.278Z,47.20
2019-04-23T05:03:32.736Z,47.40
2019-04-23T05:06:16.197Z,47.20
2019-04-23T05:08:36.857Z,47.40
2019-04-23T05:11:24.173Z,47.30
2019-04-23T05:14:02.275Z,47.40
2019-04-23T05:16:27.667Z,47.30
2019-04-23T05:19:13.761Z,47.40
2019-04-23T05:26:46.548Z,47.50
2019-04-23T05:29:31.260Z,47.60
2019-04-23T05:32:14.638Z,47.60
2019-04-23T05:34:54.192Z,47.80
2019-04-23T05:37:43.424Z,47.50
2019-04-23T05:39:52.170Z,47.80
2019-04-23T05:42:19.579Z,48.90
2019-04-23T05:44:53.989Z,47.00
2019-04-23T05:47:27.399Z,44.50
2019-04-23T05:49:54.639Z,44.30
2019-04-23T05:52:24.037Z,45.10
2019-04-23T05:54:57.529Z,45.60
2019-04-23T05:57:20.054Z,46.00
2019-04-23T05:59:57.151Z,46.40
2019-04-23T06:02:37.310Z,46.90
2019-04-23T06:05:03.836Z,47.10
2019-04-23T06:12:33.581Z,47.30
2019-04-23T06:15:05.245Z,47.10
2019-04-23T06:17:30.922Z,47.20
2019-04-23T06:20:10.171Z,47.00
2019-04-23T06:25:12.546Z,46.90
2019-04-23T06:27:39.705Z,47.00
2019-04-23T06:30:15.043Z,47.00
2019-04-23T06:32:46.637Z,47.10
2019-04-23T06:35:11.823Z,47.40
2019-04-23T06:38:13.586Z,47.40
2019-04-23T06:40:24.737Z,47.50
2019-04-23T06:42:57.902Z,47.60
2019-04-23T06:45:37.428Z,47.70
2019-04-23T06:48:15.499Z,47.90
2019-04-23T06:50:53.896Z,47.90
2019-04-23T06:53:04.311Z,47.90
2019-04-23T06:58:37.084Z,47.60
2019-04-23T07:01:05.338Z,47.60
2019-04-23T07:03:43.748Z,47.70
2019-04-23T07:09:05.343Z,47.50
2019-04-23T07:11:23.545Z,48.00
2019-04-23T07:16:28.265Z,47.20
2019-04-23T07:19:04.934Z,47.00
2019-04-23T07:21:17.946Z,46.70
2019-04-23T07:24:06.889Z,46.40
2019-04-23T07:26:30.595Z,46.30
2019-04-23T07:28:56.340Z,46.00
2019-04-23T07:36:32.667Z,45.80
2019-04-23T07:44:24.187Z,45.10
2019-04-23T07:47:11.743Z,45.20
2019-04-23T07:49:31.148Z,45.30
2019-04-23T07:52:12.873Z,45.20
2019-04-23T07:54:51.308Z,45.60
2019-04-23T07:59:48.683Z,45.00
2019-04-23T08:02:21.967Z,44.20
2019-04-23T08:05:20.282Z,44.60
2019-04-23T08:07:44.120Z,44.70
2019-04-23T08:10:12.389Z,45.50
2019-04-23T08:12:45.183Z,44.30
2019-04-23T08:15:14.919Z,44.20
2019-04-23T08:17:37.392Z,44.00
2019-04-23T08:20:14.161Z,44.20
2019-04-23T08:22:47.508Z,44.40
2019-04-23T08:25:42.582Z,44.80
2019-04-23T08:28:20.664Z,44.70
2019-04-23T08:30:42.258Z,44.50
2019-04-23T08:33:33.484Z,44.00
2019-04-23T08:36:04.056Z,44.30
2019-04-23T08:41:12.970Z,44.30
2019-04-23T08:43:40.783Z,44.40
2019-04-23T08:46:33.034Z,44.50
2019-04-23T08:48:57.535Z,44.60
2019-04-23T08:51:37.351Z,44.10
2019-04-23T08:54:01.410Z,43.70
2019-04-23T08:56:38.663Z,43.70
2019-04-23T08:59:05.113Z,43.40
2019-04-23T09:01:43.580Z,42.70
2019-04-23T09:04:00.361Z,42.60
2019-04-23T09:06:30.806Z,42.30
2019-04-23T09:09:04.297Z,42.70
2019-04-23T09:12:14.719Z,42.70
2019-04-23T09:14:20.549Z,42.60
2019-04-23T09:17:00.953Z,42.30
2019-04-23T09:20:03.545Z,42.30
2019-04-23T09:22:03.766Z,42.30
2019-04-23T09:24:29.114Z,41.70
2019-04-23T09:27:07.361Z,41.70
2019-04-23T09:29:42.461Z,41.60
2019-04-23T09:34:54.445Z,41.40
2019-04-23T09:37:20.700Z,41.10
2019-04-23T09:39:59.565Z,40.90
2019-04-23T09:42:37.968Z,39.90
2019-04-23T09:45:05.465Z,39.80
2019-04-23T09:50:32.697Z,40.30
2019-04-23T09:53:24.150Z,40.50
2019-04-23T10:00:45.483Z,38.80
2019-04-23T10:03:09.070Z,38.50
2019-04-23T10:05:37.274Z,38.50
2019-04-23T10:08:06.629Z,38.30
2019-04-23T10:10:30.254Z,38.80
2019-04-23T10:13:02.214Z,39.10
2019-04-23T10:15:48.527Z,39.30
2019-04-23T10:18:18.566Z,38.90
2019-04-23T10:20:48.726Z,39.40
2019-04-23T10:23:19.026Z,40.00
2019-04-23T10:25:49.828Z,40.30
2019-04-23T10:28:38.160Z,40.10
2019-04-23T10:31:08.940Z,39.40
2019-04-23T10:33:39.802Z,39.70
2019-04-23T10:36:13.066Z,39.40
2019-04-23T10:38:44.411Z,39.20
2019-04-23T10:41:12.013Z,38.60
2019-04-23T10:43:46.039Z,38.40
2019-04-23T10:46:43.006Z,37.90
2019-04-23T10:52:07.100Z,37.90
2019-04-23T10:57:07.380Z,38.10
2019-04-23T10:59:53.641Z,38.10
2019-04-23T11:10:07.241Z,37.10
2019-04-23T11:12:46.239Z,36.80
2019-04-23T11:22:56.820Z,36.10
2019-04-23T11:30:41.711Z,35.80
2019-04-23T11:33:09.442Z,35.10
2019-04-23T11:36:09.255Z,35.40
2019-04-23T11:38:35.486Z,35.20
2019-04-23T11:40:33.726Z,35.30
2019-04-23T11:43:14.793Z,35.20
2019-04-23T11:51:26.671Z,35.70
2019-04-23T11:55:44.745Z,35.90
2019-04-23T12:03:56.855Z,36.00
2019-04-23T12:06:52.773Z,35.90
2019-04-23T12:09:09.849Z,36.00
2019-04-23T12:12:00.090Z,35.40
2019-04-23T12:15:16.396Z,35.30
2019-04-23T12:22:34.311Z,35.90
2019-04-23T12:27:30.590Z,35.20
2019-04-23T12:30:01.311Z,34.80
2019-04-23T12:35:03.779Z,34.60
2019-04-23T12:43:05.741Z,34.40
2019-04-23T12:48:15.673Z,33.70
2019-04-23T12:50:52.845Z,33.90
2019-04-23T12:55:41.927Z,34.60
2019-04-23T12:58:19.277Z,34.80
2019-04-23T13:00:52.791Z,35.10
2019-04-23T13:03:24.586Z,34.90
2019-04-23T13:05:57.422Z,35.10
2019-04-23T13:13:23.529Z,33.70
2019-04-23T13:16:12.963Z,33.50
2019-04-23T13:18:31.538Z,34.20
2019-04-23T13:20:47.667Z,33.10
2019-04-23T13:25:57.119Z,32.50
2019-04-23T13:28:35.259Z,32.40
2019-04-23T13:31:08.588Z,31.70
2019-04-23T13:33:52.210Z,31.10
2019-04-23T13:36:11.321Z,29.70
2019-04-23T13:43:40.611Z,27.90
2019-04-23T13:48:46.961Z,27.80
2019-04-23T13:51:26.264Z,27.50
2019-04-23T13:53:53.545Z,27.70
2019-04-23T13:57:12.842Z,27.40
2019-04-23T13:59:12.231Z,27.40
2019-04-23T14:01:32.294Z,28.00
2019-04-23T14:04:14.209Z,27.60
2019-04-23T14:06:41.905Z,27.50
2019-04-23T14:09:14.463Z,27.30
2019-04-23T14:11:43.455Z,28.00
2019-04-23T14:17:13.067Z,29.00
2019-04-23T14:19:16.252Z,28.60
2019-04-23T14:21:44.406Z,28.40
2019-04-23T14:24:32.000Z,28.30
2019-04-23T14:26:46.348Z,28.20
2019-04-23T14:29:25.952Z,28.30
2019-04-23T14:34:43.623Z,28.90
2019-04-23T14:37:02.911Z,29.30
2019-04-23T14:39:24.094Z,28.80
2019-04-23T14:42:07.158Z,29.20
2019-04-23T14:44:31.301Z,29.70
2019-04-23T14:47:11.973Z,30.40
2019-04-23T14:49:45.547Z,30.30
2019-04-23T14:52:16.879Z,30.00
2019-04-23T14:55:17.944Z,29.90
2019-04-23T14:57:23.140Z,30.00
2019-04-23T14:59:46.831Z,30.40
2019-04-23T15:02:22.780Z,31.00
2019-04-23T15:04:49.590Z,30.70
2019-04-23T15:07:22.607Z,30.70
2019-04-23T15:09:59.247Z,31.10
2019-04-23T15:12:23.287Z,31.40
2019-04-23T15:15:02.662Z,31.60
2019-04-23T15:17:22.099Z,32.10
2019-04-23T15:19:58.084Z,32.10
2019-04-23T15:22:42.182Z,32.80
2019-04-23T15:25:30.155Z,32.80
2019-04-23T15:28:05.271Z,32.30
2019-04-23T15:30:09.004Z,31.50
2019-04-23T15:33:03.594Z,31.50
2019-04-23T15:35:33.529Z,31.80
2019-04-23T15:40:28.414Z,31.50
2019-04-23T15:43:06.762Z,31.30
2019-04-23T15:45:30.493Z,31.10
2019-04-23T15:48:03.253Z,31.30
2019-04-23T15:55:33.936Z,32.70
2019-04-23T16:00:38.409Z,33.60
2019-04-23T16:02:45.154Z,34.10
2019-04-23T16:05:15.162Z,34.40
2019-04-23T16:08:04.655Z,35.00
2019-04-23T16:13:27.628Z,35.50
2019-04-23T16:15:50.400Z,35.70
2019-04-23T16:18:37.024Z,35.70
2019-04-23T16:21:20.344Z,35.60
2019-04-23T16:23:47.291Z,35.70
2019-04-23T16:26:24.079Z,35.70
2019-04-23T16:29:07.309Z,35.60
2019-04-23T16:34:05.130Z,35.60
2019-04-23T16:38:59.711Z,36.20
2019-04-23T16:41:39.970Z,36.40
2019-04-23T16:44:16.886Z,36.60
2019-04-23T16:46:48.563Z,37.00
2019-04-23T16:49:19.751Z,37.10
2019-04-23T16:51:43.816Z,37.30
2019-04-23T16:57:15.269Z,37.50
2019-04-23T16:59:21.862Z,37.70
2019-04-23T17:01:52.250Z,37.80
2019-04-23T17:06:52.320Z,38.20
2019-04-23T17:09:34.131Z,38.40
2019-04-23T17:12:00.069Z,38.40
2019-04-23T17:16:50.943Z,38.80
2019-04-23T17:19:28.220Z,38.90
2019-04-23T17:22:01.190Z,39.30
2019-04-23T17:24:31.232Z,39.50
2019-04-23T17:29:38.524Z,39.60
2019-04-23T17:32:05.652Z,39.80
2019-04-23T17:37:22.489Z,40.10
2019-04-23T17:40:08.563Z,40.30
2019-04-23T17:42:39.279Z,40.50
2019-04-23T17:47:52.424Z,40.80
2019-04-23T17:50:20.047Z,41.10
2019-04-23T17:55:22.398Z,41.40
2019-04-23T17:58:03.334Z,41.50
2019-04-23T18:00:35.934Z,41.70
2019-04-23T18:05:25.174Z,41.80
2019-04-23T18:07:59.094Z,42.00
2019-04-23T18:13:04.392Z,42.60
2019-04-23T18:15:35.136Z,42.40
2019-04-23T18:18:10.528Z,42.60
2019-04-23T18:20:37.502Z,42.80
2019-04-23T18:23:09.845Z,42.90
2019-04-23T18:25:43.324Z,43.20
2019-04-23T18:28:08.965Z,43.40
2019-04-23T18:31:05.942Z,43.70
2019-04-23T18:36:02.383Z,44.00
2019-04-23T18:38:42.847Z,44.10
2019-04-23T18:43:42.985Z,44.60
2019-04-23T18:46:14.951Z,44.70
2019-04-23T18:51:23.553Z,45.20
2019-04-23T18:56:42.007Z,45.60
2019-04-23T18:59:24.763Z,45.70
2019-04-23T19:01:43.222Z,46.30
2019-04-23T19:06:43.016Z,46.50
2019-04-23T19:09:35.403Z,46.40
2019-04-23T19:12:25.128Z,46.60
2019-04-23T19:17:36.063Z,46.90
2019-04-23T19:19:53.181Z,47.00
2019-04-23T19:22:19.071Z,47.00
2019-04-23T19:24:48.328Z,47.10
2019-04-23T19:27:18.368Z,47.30
2019-04-23T19:29:47.881Z,47.30
2019-04-23T19:32:14.705Z,47.40
2019-04-23T19:34:42.736Z,47.40
2019-04-23T19:37:26.360Z,47.70
2019-04-23T19:39:50.130Z,47.80
2019-04-23T19:42:28.816Z,48.00
2019-04-23T19:47:37.292Z,48.40
2019-04-23T19:49:58.912Z,48.50
2019-04-23T19:52:52.339Z,48.80
2019-04-23T19:57:50.391Z,49.10
2019-04-23T20:00:17.914Z,49.10
2019-04-23T20:02:55.269Z,48.90
2019-04-23T20:05:02.807Z,49.40
2019-04-23T20:10:28.489Z,49.70
2019-04-23T20:12:40.702Z,49.80
2019-04-23T20:15:03.791Z,50.10
2019-04-23T20:20:08.799Z,50.50
2019-04-23T20:22:48.947Z,50.30
2019-04-23T20:25:38.729Z,50.50
2019-04-23T20:27:52.493Z,50.60
2019-04-23T20:35:38.494Z,50.80
2019-04-23T20:38:27.445Z,50.90
2019-04-23T20:40:50.826Z,51.10
2019-04-23T20:43:15.100Z,51.10
2019-04-23T20:45:51.709Z,51.20
2019-04-23T20:48:18.443Z,51.40
2019-04-23T20:50:44.450Z,51.30
2019-04-23T20:53:13.575Z,51.20
2019-04-23T20:58:33.739Z,51.60
2019-04-23T21:01:09.268Z,51.90
2019-04-23T21:03:49.105Z,52.00
2019-04-23T21:06:07.051Z,52.30
2019-04-23T21:09:00.835Z,52.20
2019-04-23T21:10:58.340Z,52.40
2019-04-23T21:13:56.204Z,52.60
2019-04-23T21:16:04.975Z,52.70
2019-04-23T21:18:48.368Z,53.00
2019-04-23T21:21:27.837Z,53.20
2019-04-23T21:26:19.969Z,53.40
2019-04-23T21:29:13.167Z,53.70
2019-04-23T21:31:35.502Z,53.80
2019-04-23T21:34:12.811Z,53.90
2019-04-23T21:41:53.232Z,54.50
2019-04-23T21:44:13.363Z,54.70
2019-04-23T21:47:04.566Z,54.80
2019-04-23T21:49:50.689Z,54.90
2019-04-23T21:52:11.514Z,54.90
2019-04-23T21:54:44.149Z,55.00
2019-04-23T21:57:10.603Z,55.20
2019-04-23T21:59:46.643Z,55.30
2019-04-23T22:02:12.821Z,55.50
2019-04-23T22:04:47.627Z,55.50
2019-04-23T22:07:18.538Z,55.60
2019-04-23T22:12:15.460Z,55.90
2019-04-23T22:14:55.866Z,56.10
2019-04-23T22:17:16.468Z,55.90
2019-04-23T22:19:55.631Z,55.90
2019-04-23T22:22:51.266Z,56.00
2019-04-23T22:25:08.672Z,56.20
2019-04-23T22:27:48.439Z,56.50
2019-04-23T22:30:12.899Z,56.70
2019-04-23T22:33:00.342Z,57.30
2019-04-23T22:35:21.998Z,56.80
2019-04-23T22:38:01.053Z,56.80
2019-04-23T22:40:18.487Z,56.80
2019-04-23T22:43:14.748Z,56.80
2019-04-23T22:45:28.263Z,56.80
2019-04-23T22:48:10.344Z,56.90
2019-04-23T22:50:31.142Z,56.70
2019-04-23T22:53:04.308Z,56.80
2019-04-23T22:55:38.907Z,56.80
2019-04-23T23:00:24.356Z,57.00
2019-04-23T23:03:21.411Z,57.10
2019-04-23T23:06:11.053Z,57.20
2019-04-23T23:15:53.284Z,57.50
2019-04-23T23:18:28.463Z,57.80
2019-04-23T23:20:59.532Z,57.70
2019-04-23T23:23:21.535Z,57.90
2019-04-23T23:26:02.821Z,57.90
2019-04-23T23:28:35.021Z,58.00
2019-04-23T23:33:30.406Z,58.20
2019-04-23T23:36:05.876Z,58.40
2019-04-23T23:41:12.338Z,58.80
2019-04-23T23:43:48.547Z,58.90
2019-04-23T23:51:23.259Z,59.40
2019-04-23T23:53:51.272Z,59.30
2019-04-23T23:59:03.800Z,59.50
